createdAt,value
2023-01-22T00:00:30.700Z,-0.10
2023-01-22T00:02:36.256Z,-0.30
2023-01-22T00:04:38.837Z,-0.30
2023-01-22T00:06:40.567Z,-0.30
2023-01-22T00:08:42.672Z,-0.20
2023-01-22T00:10:52.029Z,-0.20
2023-01-22T00:12:55.247Z,-0.30
2023-01-22T00:14:57.145Z,-0.30
2023-01-22T00:16:58.988Z,-0.30
2023-01-22T00:19:00.679Z,-0.40
2023-01-22T00:21:02.524Z,-0.20
2023-01-22T00:23:04.302Z,-0.30
2023-01-22T00:25:06.875Z,-0.30
2023-01-22T00:27:09.008Z,-0.30
2023-01-22T00:29:14.118Z,-0.20
2023-01-22T00:31:16.954Z,-0.20
2023-01-22T00:33:18.776Z,-0.20
2023-01-22T00:35:20.534Z,-0.10
2023-01-22T00:37:22.272Z,-0.20
2023-01-22T00:39:24.103Z,-0.30
2023-01-22T00:41:25.799Z,-0.30
2023-01-22T00:43:27.495Z,-0.30
2023-01-22T00:45:30.600Z,-0.30
2023-01-22T00:47:32.405Z,-0.20
2023-01-22T00:49:34.140Z,-0.10
2023-01-22T00:51:36.761Z,-0.30
2023-01-22T00:53:41.158Z,-0.20
2023-01-22T00:56:13.094Z,-0.10
2023-01-22T00:58:14.983Z,-0.30
2023-01-22T01:00:18.463Z,-0.20
2023-01-22T01:02:20.560Z,-0.20
2023-01-22T01:04:22.329Z,-0.20
2023-01-22T01:06:24.087Z,-0.20
2023-01-22T01:08:26.870Z,-0.20
2023-01-22T01:10:28.855Z,-0.10
2023-01-22T01:12:30.613Z,-0.30
2023-01-22T01:14:32.412Z,-0.30
2023-01-22T01:16:34.197Z,-0.20
2023-01-22T01:18:36.533Z,-0.20
2023-01-22T01:20:38.698Z,-0.10
2023-01-22T01:22:40.486Z,-0.10
2023-01-22T01:24:42.270Z,-0.20
2023-01-22T01:26:43.970Z,-0.20
2023-01-22T01:28:45.801Z,-0.30
2023-01-22T01:30:47.693Z,-0.10
2023-01-22T01:32:49.495Z,-0.20
2023-01-22T01:34:51.292Z,-0.10
2023-01-22T01:36:53.059Z,-0.10
2023-01-22T01:38:54.838Z,0.00
2023-01-22T01:40:56.660Z,-0.10
2023-01-22T01:43:00.422Z,-0.10
2023-01-22T01:45:21.019Z,-0.10
2023-01-22T01:47:34.400Z,-0.10
2023-01-22T01:49:51.096Z,-0.10
2023-01-22T01:51:56.428Z,-0.20
2023-01-22T01:54:00.195Z,-0.10
2023-01-22T01:56:05.354Z,-0.20
2023-01-22T01:58:21.700Z,-0.10
2023-01-22T02:00:25.672Z,-0.20
2023-01-22T02:02:27.571Z,-0.10
2023-01-22T02:04:29.551Z,-0.10
2023-01-22T02:06:31.325Z,0.00
2023-01-22T02:08:33.094Z,0.00
2023-01-22T02:10:34.846Z,0.00
2023-01-22T02:12:36.891Z,-0.10
2023-01-22T02:14:43.090Z,-0.10
2023-01-22T02:16:45.244Z,0.00
2023-01-22T02:18:47.076Z,0.00
2023-01-22T02:20:53.716Z,0.10
2023-01-22T02:22:55.542Z,0.10
2023-01-22T02:24:57.572Z,0.00
2023-01-22T02:26:59.314Z,0.00
2023-01-22T02:29:01.324Z,0.10
2023-01-22T02:31:03.100Z,-0.10
2023-01-22T02:33:04.846Z,-0.10
2023-01-22T02:35:07.087Z,-0.20
2023-01-22T02:37:08.911Z,-0.20
2023-01-22T02:39:10.675Z,-0.20
2023-01-22T02:41:13.058Z,-0.20
2023-01-22T02:43:15.169Z,-0.20
2023-01-22T02:45:16.979Z,-0.20
2023-01-22T02:47:19.314Z,-0.20
2023-01-22T02:49:21.038Z,-0.20
2023-01-22T02:51:23.204Z,-0.20
2023-01-22T02:53:25.075Z,-0.10
2023-01-22T02:55:26.838Z,-0.10
2023-01-22T02:57:31.206Z,-0.10
2023-01-22T02:59:34.068Z,0.00
2023-01-22T03:01:35.940Z,0.00
2023-01-22T03:03:37.675Z,0.10
2023-01-22T03:05:39.371Z,0.00
2023-01-22T03:07:44.721Z,0.10
2023-01-22T03:09:47.762Z,0.10
2023-01-22T03:11:49.869Z,0.10
2023-01-22T03:14:11.577Z,0.00
2023-01-22T03:16:32.185Z,0.00
2023-01-22T03:18:52.506Z,0.00
2023-01-22T03:21:13.258Z,0.00
2023-01-22T03:23:14.966Z,0.00
2023-01-22T03:25:16.818Z,0.00
2023-01-22T03:27:20.648Z,0.00
2023-01-22T03:29:22.411Z,0.00
2023-01-22T03:31:24.229Z,0.00
2023-01-22T03:33:26.118Z,0.00
2023-01-22T03:35:27.814Z,0.00
2023-01-22T03:37:29.526Z,0.00
2023-01-22T03:39:32.203Z,0.10
2023-01-22T03:41:34.291Z,0.00
2023-01-22T03:43:36.180Z,0.00
2023-01-22T03:45:37.929Z,0.00
2023-01-22T03:47:39.702Z,0.10
2023-01-22T03:49:41.433Z,0.10
2023-01-22T03:51:43.896Z,0.10
2023-01-22T03:53:46.299Z,0.10
2023-01-22T03:55:57.521Z,0.10
2023-01-22T03:57:59.343Z,0.00
2023-01-22T04:00:02.104Z,0.10
2023-01-22T04:02:04.102Z,0.10
2023-01-22T04:04:05.813Z,0.10
2023-01-22T04:06:09.612Z,0.10
2023-01-22T04:08:11.318Z,0.00
2023-01-22T04:10:13.091Z,0.10
2023-01-22T04:12:14.788Z,0.10
2023-01-22T04:14:16.632Z,0.20
2023-01-22T04:16:18.472Z,0.20
2023-01-22T04:18:20.944Z,0.20
2023-01-22T04:20:22.688Z,0.10
2023-01-22T04:22:24.493Z,0.10
2023-01-22T04:24:26.539Z,0.20
2023-01-22T04:26:28.517Z,0.20
2023-01-22T04:28:30.298Z,0.20
2023-01-22T04:30:32.441Z,0.20
2023-01-22T04:32:34.172Z,0.10
2023-01-22T04:34:35.950Z,0.10
2023-01-22T04:36:37.727Z,0.10
2023-01-22T04:38:39.914Z,0.10
2023-01-22T04:40:41.739Z,0.10
2023-01-22T04:42:43.459Z,0.10
2023-01-22T04:44:45.311Z,0.20
2023-01-22T04:46:46.976Z,0.20
2023-01-22T04:48:48.720Z,0.20
2023-01-22T04:50:50.549Z,0.30
2023-01-22T04:52:54.344Z,0.30
2023-01-22T04:54:56.101Z,0.20
2023-01-22T04:56:57.923Z,0.20
2023-01-22T04:58:59.640Z,0.10
2023-01-22T05:01:01.441Z,0.10
2023-01-22T05:03:04.525Z,0.20
2023-01-22T05:05:08.116Z,0.20
2023-01-22T05:07:09.778Z,0.30
2023-01-22T05:09:11.584Z,0.30
2023-01-22T05:11:13.319Z,0.30
2023-01-22T05:13:15.025Z,0.30
2023-01-22T05:15:23.980Z,0.30
2023-01-22T05:17:26.416Z,0.30
2023-01-22T05:19:28.492Z,0.20
2023-01-22T05:21:30.220Z,0.30
2023-01-22T05:23:31.989Z,0.30
2023-01-22T05:25:36.969Z,0.20
2023-01-22T05:27:38.803Z,0.30
2023-01-22T05:29:40.523Z,0.30
2023-01-22T05:31:42.360Z,0.30
2023-01-22T05:33:44.351Z,0.30
2023-01-22T05:35:46.166Z,0.30
2023-01-22T05:37:48.163Z,0.30
2023-01-22T05:39:49.963Z,0.30
2023-01-22T05:41:52.118Z,0.30
2023-01-22T05:43:53.823Z,0.30
2023-01-22T05:46:00.799Z,0.30
2023-01-22T05:48:02.572Z,0.30
2023-01-22T05:50:04.589Z,0.30
2023-01-22T05:52:06.453Z,0.20
2023-01-22T05:54:08.421Z,0.20
2023-01-22T05:56:10.632Z,0.20
2023-01-22T05:58:12.317Z,0.20
2023-01-22T06:00:14.702Z,0.20
2023-01-22T06:02:16.598Z,0.30
2023-01-22T06:04:18.499Z,0.30
2023-01-22T06:06:20.477Z,0.30
2023-01-22T06:08:22.238Z,0.30
2023-01-22T06:10:23.969Z,0.30
2023-01-22T06:12:25.840Z,0.30
2023-01-22T06:14:27.527Z,0.30
2023-01-22T06:16:29.220Z,0.30
2023-01-22T06:18:31.110Z,0.30
2023-01-22T06:20:32.836Z,0.30
2023-01-22T06:22:34.487Z,0.30
2023-01-22T06:24:36.201Z,0.30
2023-01-22T06:26:37.939Z,0.40
2023-01-22T06:28:39.632Z,0.40
2023-01-22T06:30:41.321Z,0.40
2023-01-22T06:32:43.117Z,0.40
2023-01-22T06:34:44.907Z,0.40
2023-01-22T06:36:46.698Z,0.40
2023-01-22T06:38:48.492Z,0.40
2023-01-22T06:40:54.281Z,0.30
2023-01-22T06:42:57.708Z,0.30
2023-01-22T06:44:59.467Z,0.30
2023-01-22T06:47:01.209Z,0.40
2023-01-22T06:49:03.220Z,0.30
2023-01-22T06:51:05.267Z,0.30
2023-01-22T06:53:07.081Z,0.30
2023-01-22T06:55:09.197Z,0.30
2023-01-22T06:57:10.971Z,0.30
2023-01-22T06:59:12.671Z,0.40
2023-01-22T07:01:14.372Z,0.40
2023-01-22T07:03:16.139Z,0.40
2023-01-22T07:05:19.649Z,0.30
2023-01-22T07:07:21.415Z,0.40
2023-01-22T07:09:23.164Z,0.30
2023-01-22T07:11:24.992Z,0.30
2023-01-22T07:13:26.769Z,0.30
2023-01-22T07:15:28.523Z,0.30
2023-01-22T07:17:30.301Z,0.40
2023-01-22T07:19:32.337Z,0.30
2023-01-22T07:21:34.068Z,0.30
2023-01-22T07:23:35.827Z,0.30
2023-01-22T07:25:37.832Z,0.30
2023-01-22T07:27:39.679Z,0.30
2023-01-22T07:29:41.543Z,0.40
2023-01-22T07:31:43.694Z,0.40
2023-01-22T07:33:45.512Z,0.50
2023-01-22T07:35:56.974Z,0.60
2023-01-22T07:37:59.734Z,0.60
2023-01-22T07:40:01.712Z,0.50
2023-01-22T07:42:03.725Z,0.50
2023-01-22T07:44:07.691Z,0.50
2023-01-22T07:46:09.602Z,0.40
2023-01-22T07:48:11.440Z,0.50
2023-01-22T07:50:13.191Z,0.50
2023-01-22T07:52:14.842Z,0.50
2023-01-22T07:54:18.494Z,0.50
2023-01-22T07:56:20.552Z,0.60
2023-01-22T07:58:22.966Z,0.60
2023-01-22T08:00:24.736Z,0.70
2023-01-22T08:02:26.591Z,0.60
2023-01-22T08:04:28.464Z,0.60
2023-01-22T08:06:30.248Z,0.60
2023-01-22T08:08:31.973Z,0.60
2023-01-22T08:10:33.699Z,0.70
2023-01-22T08:12:38.467Z,0.70
2023-01-22T08:14:40.268Z,0.70
2023-01-22T08:16:42.043Z,0.70
2023-01-22T08:18:43.849Z,0.80
2023-01-22T08:20:45.780Z,0.80
2023-01-22T08:22:47.544Z,0.80
2023-01-22T08:24:49.227Z,0.80
2023-01-22T08:26:50.993Z,0.80
2023-01-22T08:28:52.731Z,0.90
2023-01-22T08:31:02.441Z,0.90
2023-01-22T08:33:04.293Z,0.90
2023-01-22T08:35:06.451Z,0.90
2023-01-22T08:37:08.389Z,0.90
2023-01-22T08:39:10.783Z,0.70
2023-01-22T08:41:12.469Z,0.70
2023-01-22T08:43:14.209Z,0.70
2023-01-22T08:45:15.988Z,0.80
2023-01-22T08:47:17.821Z,0.90
2023-01-22T08:49:21.690Z,0.90
2023-01-22T08:51:24.989Z,1.00
2023-01-22T08:53:26.828Z,1.10
2023-01-22T08:55:28.621Z,1.00
2023-01-22T08:57:30.351Z,1.10
2023-01-22T08:59:32.197Z,1.00
2023-01-22T09:01:34.532Z,0.90
2023-01-22T09:03:36.273Z,0.90
2023-01-22T09:05:39.880Z,0.90
2023-01-22T09:07:41.663Z,1.00
2023-01-22T09:09:43.378Z,1.00
2023-01-22T09:11:46.752Z,0.90
2023-01-22T09:13:48.523Z,1.00
2023-01-22T09:15:50.236Z,0.90
2023-01-22T09:17:52.054Z,1.00
2023-01-22T09:19:53.920Z,1.20
2023-01-22T09:21:55.681Z,1.10
2023-01-22T09:23:57.437Z,1.20
2023-01-22T09:26:00.784Z,1.20
2023-01-22T09:28:05.061Z,1.20
2023-01-22T09:30:09.466Z,1.20
2023-01-22T09:32:11.190Z,1.40
2023-01-22T09:34:12.993Z,1.50
2023-01-22T09:36:17.855Z,1.40
2023-01-22T09:38:19.838Z,1.60
2023-01-22T09:40:23.713Z,1.80
2023-01-22T09:42:35.207Z,1.60
2023-01-22T09:44:42.473Z,1.70
2023-01-22T09:46:56.272Z,1.90
2023-01-22T09:49:03.276Z,2.10
2023-01-22T09:51:05.482Z,2.00
2023-01-22T09:53:13.703Z,1.80
2023-01-22T09:55:23.902Z,1.70
2023-01-22T09:57:31.620Z,1.60
2023-01-22T09:59:43.665Z,1.70
2023-01-22T10:02:23.340Z,1.60
2023-01-22T10:04:36.882Z,1.40
2023-01-22T10:06:40.385Z,1.50
2023-01-22T10:09:12.006Z,1.60
2023-01-22T10:11:13.840Z,1.50
2023-01-22T10:13:25.592Z,1.60
2023-01-22T10:15:27.742Z,1.50
2023-01-22T10:17:34.647Z,1.60
2023-01-22T10:19:45.298Z,1.60
2023-01-22T10:21:56.144Z,1.40
2023-01-22T10:23:59.338Z,1.50
2023-01-22T10:26:37.593Z,1.50
2023-01-22T10:28:47.701Z,1.60
2023-01-22T10:30:50.510Z,1.70
2023-01-22T10:33:04.313Z,1.60
2023-01-22T10:35:14.574Z,1.70
2023-01-22T10:37:18.585Z,1.80
2023-01-22T10:39:23.685Z,1.90
2023-01-22T10:41:25.421Z,1.90
2023-01-22T10:43:32.789Z,1.90
2023-01-22T10:45:34.463Z,2.00
2023-01-22T10:47:36.169Z,2.10
2023-01-22T10:49:37.864Z,2.10
2023-01-22T10:51:43.839Z,1.90
2023-01-22T10:53:50.048Z,1.90
2023-01-22T10:55:55.377Z,1.90
2023-01-22T10:58:18.576Z,1.90
2023-01-22T11:00:25.788Z,1.80
2023-01-22T11:02:28.489Z,1.80
2023-01-22T11:04:33.321Z,1.80
2023-01-22T11:06:41.855Z,1.80
2023-01-22T11:08:55.979Z,1.80
2023-01-22T11:11:05.765Z,1.90
2023-01-22T11:13:26.115Z,2.00
2023-01-22T11:15:40.839Z,2.00
2023-01-22T11:17:48.373Z,1.80
2023-01-22T11:20:05.860Z,1.70
2023-01-22T11:22:20.798Z,1.70
2023-01-22T11:24:24.802Z,1.70
2023-01-22T11:26:48.502Z,1.70
2023-01-22T11:28:53.033Z,1.80
2023-01-22T11:31:03.200Z,1.80
2023-01-22T11:33:33.977Z,1.90
2023-01-22T11:35:51.345Z,2.00
2023-01-22T11:38:05.484Z,1.90
2023-01-22T11:40:09.993Z,1.80
2023-01-22T11:42:23.401Z,1.90
2023-01-22T11:44:55.732Z,2.00
2023-01-22T11:47:22.041Z,2.00
2023-01-22T11:49:45.884Z,2.10
2023-01-22T11:52:19.291Z,2.00
2023-01-22T11:54:45.722Z,1.90
2023-01-22T11:57:02.177Z,2.00
2023-01-22T11:59:33.012Z,1.80
2023-01-22T12:02:12.715Z,1.90
2023-01-22T12:04:22.237Z,2.10
2023-01-22T12:06:47.890Z,2.10
2023-01-22T12:09:07.579Z,2.20
2023-01-22T12:11:41.985Z,2.20
2023-01-22T12:14:20.797Z,2.30
2023-01-22T12:16:45.554Z,2.40
2023-01-22T12:19:32.883Z,2.30
2023-01-22T12:22:01.675Z,2.20
2023-01-22T12:24:30.083Z,2.30
2023-01-22T12:27:02.723Z,2.30
2023-01-22T12:29:41.892Z,2.10
2023-01-22T12:31:54.655Z,2.00
2023-01-22T12:34:00.139Z,2.10
2023-01-22T12:36:09.963Z,2.20
2023-01-22T12:38:12.496Z,2.10
2023-01-22T12:40:29.536Z,2.20
2023-01-22T12:42:40.351Z,2.30
2023-01-22T12:45:22.723Z,2.30
2023-01-22T12:47:32.099Z,2.30
2023-01-22T12:50:07.649Z,2.30
2023-01-22T12:52:44.141Z,2.30
2023-01-22T12:55:29.173Z,2.40
2023-01-22T12:57:44.229Z,2.40
2023-01-22T12:59:52.136Z,2.20
2023-01-22T13:02:00.445Z,2.20
2023-01-22T13:04:16.958Z,2.30
2023-01-22T13:06:47.849Z,2.20
2023-01-22T13:09:01.341Z,2.20
2023-01-22T13:11:11.256Z,2.30
2023-01-22T13:13:45.761Z,2.20
2023-01-22T13:16:19.452Z,2.20
2023-01-22T13:18:27.848Z,2.10
2023-01-22T13:20:37.758Z,2.10
2023-01-22T13:22:44.389Z,2.20
2023-01-22T13:24:59.593Z,2.20
2023-01-22T13:27:05.978Z,2.20
2023-01-22T13:29:27.003Z,2.20
2023-01-22T13:31:29.570Z,2.20
2023-01-22T13:33:37.935Z,2.20
2023-01-22T13:35:47.110Z,2.20
2023-01-22T13:37:53.935Z,2.10
2023-01-22T13:39:56.698Z,2.20
2023-01-22T13:42:01.140Z,2.10
2023-01-22T13:44:22.120Z,2.20
2023-01-22T13:46:26.249Z,2.20
2023-01-22T13:48:28.914Z,2.20
2023-01-22T13:50:32.270Z,2.20
2023-01-22T13:52:35.246Z,2.20
2023-01-22T13:54:43.125Z,2.20
2023-01-22T13:56:45.032Z,2.10
2023-01-22T13:58:49.059Z,2.20
2023-01-22T14:00:53.877Z,2.20
2023-01-22T14:02:56.715Z,2.20
2023-01-22T14:05:02.190Z,2.10
2023-01-22T14:07:05.295Z,2.10
2023-01-22T14:09:15.390Z,2.10
2023-01-22T14:11:17.872Z,2.10
2023-01-22T14:13:19.765Z,2.20
2023-01-22T14:15:21.919Z,2.20
2023-01-22T14:17:34.359Z,2.20
2023-01-22T14:19:36.837Z,2.20
2023-01-22T14:21:39.538Z,2.20
2023-01-22T14:23:42.795Z,2.20
2023-01-22T14:25:47.722Z,2.20
2023-01-22T14:27:50.195Z,2.20
2023-01-22T14:29:52.712Z,2.20
2023-01-22T14:31:57.984Z,2.10
2023-01-22T14:34:00.296Z,2.20
2023-01-22T14:36:04.692Z,2.10
2023-01-22T14:38:07.396Z,2.10
2023-01-22T14:40:12.081Z,2.20
2023-01-22T14:42:13.855Z,2.10
2023-01-22T14:44:16.034Z,2.10
2023-01-22T14:46:18.266Z,2.20
2023-01-22T14:48:21.139Z,2.20
2023-01-22T14:50:23.597Z,2.10
2023-01-22T14:52:28.314Z,2.10
2023-01-22T14:54:30.071Z,2.10
2023-01-22T14:56:31.894Z,2.10
2023-01-22T14:58:33.684Z,2.10
2023-01-22T15:00:35.812Z,2.10
2023-01-22T15:02:39.955Z,2.10
2023-01-22T15:04:42.924Z,2.10
2023-01-22T15:06:44.837Z,2.20
2023-01-22T15:08:46.597Z,2.10
2023-01-22T15:10:48.369Z,2.00
2023-01-22T15:12:51.966Z,2.00
2023-01-22T15:14:53.898Z,2.10
2023-01-22T15:16:56.043Z,2.10
2023-01-22T15:18:58.227Z,2.10
2023-01-22T15:20:59.980Z,2.00
2023-01-22T15:23:01.687Z,2.10
2023-01-22T15:25:03.772Z,2.10
2023-01-22T15:27:05.980Z,2.00
2023-01-22T15:29:10.676Z,2.00
2023-01-22T15:31:12.484Z,2.00
2023-01-22T15:33:14.221Z,1.90
2023-01-22T15:35:16.072Z,1.90
2023-01-22T15:37:17.795Z,1.90
2023-01-22T15:39:19.698Z,1.90
2023-01-22T15:41:35.572Z,2.00
2023-01-22T15:43:37.290Z,2.00
2023-01-22T15:45:39.102Z,2.00
2023-01-22T15:47:40.984Z,2.00
2023-01-22T15:49:42.817Z,1.90
2023-01-22T15:51:44.552Z,1.90
2023-01-22T15:53:51.187Z,1.90
2023-01-22T15:55:53.006Z,1.90
2023-01-22T15:57:54.837Z,1.90
2023-01-22T15:59:56.686Z,1.90
2023-01-22T16:01:58.414Z,2.00
2023-01-22T16:04:01.662Z,1.90
2023-01-22T16:06:24.140Z,1.90
2023-01-22T16:08:26.025Z,1.90
2023-01-22T16:10:27.753Z,2.00
2023-01-22T16:12:31.116Z,1.90
2023-01-22T16:14:32.951Z,1.90
2023-01-22T16:16:36.828Z,1.90
2023-01-22T16:18:42.099Z,1.90
2023-01-22T16:20:43.898Z,1.90
2023-01-22T16:22:46.096Z,1.90
2023-01-22T16:24:47.872Z,1.80
2023-01-22T16:26:49.771Z,1.80
2023-01-22T16:28:54.320Z,1.80
2023-01-22T16:30:56.149Z,1.80
2023-01-22T16:32:57.958Z,1.80
2023-01-22T16:35:00.338Z,1.80
2023-01-22T16:37:02.076Z,1.80
2023-01-22T16:39:04.501Z,1.80
2023-01-22T16:41:27.857Z,1.70
2023-01-22T16:43:29.624Z,1.70
2023-01-22T16:45:33.512Z,1.80
2023-01-22T16:47:35.333Z,1.70
2023-01-22T16:49:37.020Z,1.70
2023-01-22T16:51:42.746Z,1.80
2023-01-22T16:53:45.454Z,1.80
2023-01-22T16:55:47.279Z,1.70
2023-01-22T16:57:49.068Z,1.80
2023-01-22T16:59:50.775Z,1.80
2023-01-22T17:01:53.020Z,1.80
2023-01-22T17:03:54.695Z,1.70
2023-01-22T17:05:56.811Z,1.70
2023-01-22T17:07:58.478Z,1.70
2023-01-22T17:10:00.605Z,1.70
2023-01-22T17:12:04.946Z,1.70
2023-01-22T17:14:07.949Z,1.70
2023-01-22T17:16:10.727Z,1.70
2023-01-22T17:18:12.742Z,1.70
2023-01-22T17:20:14.563Z,1.70
2023-01-22T17:22:16.551Z,1.70
2023-01-22T17:24:18.339Z,1.70
2023-01-22T17:26:20.234Z,1.70
2023-01-22T17:28:24.664Z,1.70
2023-01-22T17:30:26.510Z,1.70
2023-01-22T17:32:28.784Z,1.70
2023-01-22T17:34:30.967Z,1.70
2023-01-22T17:36:32.685Z,1.70
2023-01-22T17:38:38.468Z,1.70
2023-01-22T17:40:40.691Z,1.70
2023-01-22T17:42:42.458Z,1.70
2023-01-22T17:44:44.587Z,1.70
2023-01-22T17:46:48.967Z,1.80
2023-01-22T17:48:52.011Z,1.80
2023-01-22T17:50:53.806Z,1.70
2023-01-22T17:52:55.829Z,1.80
2023-01-22T17:54:57.576Z,1.80
2023-01-22T17:56:59.566Z,1.80
2023-01-22T17:59:03.669Z,1.80
2023-01-22T18:01:07.439Z,1.70
2023-01-22T18:03:09.129Z,1.80
2023-01-22T18:05:10.854Z,1.80
2023-01-22T18:07:12.783Z,1.80
2023-01-22T18:09:14.528Z,1.80
2023-01-22T18:11:19.889Z,1.80
2023-01-22T18:13:21.688Z,1.80
2023-01-22T18:15:23.498Z,1.80
2023-01-22T18:17:25.272Z,1.80
2023-01-22T18:19:30.279Z,1.80
2023-01-22T18:21:32.059Z,1.70
2023-01-22T18:23:33.864Z,1.60
2023-01-22T18:25:46.735Z,1.60
2023-01-22T18:27:49.754Z,1.60
2023-01-22T18:29:51.536Z,1.60
2023-01-22T18:31:53.581Z,1.60
2023-01-22T18:33:57.959Z,1.60
2023-01-22T18:35:59.875Z,1.50
2023-01-22T18:38:02.842Z,1.50
2023-01-22T18:40:05.066Z,1.50
2023-01-22T18:42:06.781Z,1.50
2023-01-22T18:44:10.003Z,1.50
2023-01-22T18:46:12.840Z,1.40
2023-01-22T18:48:15.915Z,1.40
2023-01-22T18:50:17.753Z,1.40
2023-01-22T18:52:19.598Z,1.40
2023-01-22T18:54:21.356Z,1.40
2023-01-22T18:56:25.460Z,1.30
2023-01-22T18:58:37.601Z,1.30
2023-01-22T19:00:39.528Z,1.30
2023-01-22T19:02:41.549Z,1.20
2023-01-22T19:04:43.331Z,1.20
2023-01-22T19:06:48.079Z,1.20
2023-01-22T19:09:00.573Z,1.20
2023-01-22T19:11:06.241Z,1.20
2023-01-22T19:13:08.081Z,1.10
2023-01-22T19:15:10.711Z,1.10
2023-01-22T19:17:12.586Z,1.10
2023-01-22T19:19:15.128Z,1.20
2023-01-22T19:21:18.073Z,1.20
2023-01-22T19:23:19.789Z,1.20
2023-01-22T19:25:21.818Z,1.10
2023-01-22T19:27:26.466Z,1.10
2023-01-22T19:29:29.438Z,1.10
2023-01-22T19:31:37.582Z,1.10
2023-01-22T19:33:39.488Z,1.10
2023-01-22T19:35:45.694Z,1.20
2023-01-22T19:37:47.676Z,1.30
2023-01-22T19:39:51.210Z,1.30
2023-01-22T19:41:54.360Z,1.30
2023-01-22T19:43:59.595Z,1.30
2023-01-22T19:46:07.301Z,1.30
2023-01-22T19:48:09.233Z,1.30
2023-01-22T19:50:11.403Z,1.20
2023-01-22T19:52:16.656Z,1.20
2023-01-22T19:54:19.536Z,1.20
2023-01-22T19:56:24.346Z,1.20
2023-01-22T19:58:28.019Z,1.20
2023-01-22T20:00:29.721Z,1.20
2023-01-22T20:02:31.587Z,1.20
2023-01-22T20:04:34.374Z,1.20
2023-01-22T20:06:36.460Z,1.30
2023-01-22T20:08:39.367Z,1.30
2023-01-22T20:10:41.698Z,1.30
2023-01-22T20:12:43.772Z,1.30
2023-01-22T20:14:45.868Z,1.30
2023-01-22T20:16:49.158Z,1.20
2023-01-22T20:18:51.756Z,1.20
2023-01-22T20:20:56.687Z,1.20
2023-01-22T20:22:58.581Z,1.20
2023-01-22T20:25:00.502Z,1.10
2023-01-22T20:27:02.353Z,1.10
2023-01-22T20:29:04.925Z,1.20
2023-01-22T20:31:12.534Z,1.10
2023-01-22T20:33:15.567Z,1.10
2023-01-22T20:35:18.817Z,1.10
2023-01-22T20:37:28.237Z,1.20
2023-01-22T20:39:30.498Z,1.10
2023-01-22T20:41:34.408Z,1.20
2023-01-22T20:43:41.140Z,1.10
2023-01-22T20:45:43.054Z,1.10
2023-01-22T20:47:48.701Z,1.10
2023-01-22T20:49:50.785Z,1.10
2023-01-22T20:51:53.308Z,1.20
2023-01-22T20:53:56.780Z,1.20
2023-01-22T20:56:14.159Z,1.20
2023-01-22T20:58:15.952Z,1.20
2023-01-22T21:00:18.205Z,1.30
2023-01-22T21:02:20.076Z,1.30
2023-01-22T21:04:22.138Z,1.30
2023-01-22T21:06:35.713Z,1.30
2023-01-22T21:08:38.160Z,1.50
2023-01-22T21:10:40.181Z,1.50
2023-01-22T21:12:46.817Z,1.50
2023-01-22T21:14:54.594Z,1.50
2023-01-22T21:16:56.904Z,1.50
2023-01-22T21:19:05.479Z,1.40
2023-01-22T21:21:11.752Z,1.40
2023-01-22T21:23:14.166Z,1.30
2023-01-22T21:25:16.184Z,1.40
2023-01-22T21:27:20.823Z,1.30
2023-01-22T21:29:23.700Z,1.30
2023-01-22T21:31:26.985Z,1.30
2023-01-22T21:33:28.906Z,1.30
2023-01-22T21:35:30.901Z,1.20
2023-01-22T21:37:32.857Z,1.20
2023-01-22T21:39:35.049Z,1.20
2023-01-22T21:41:37.800Z,1.20
2023-01-22T21:44:00.727Z,1.20
2023-01-22T21:46:21.508Z,1.20
2023-01-22T21:48:23.253Z,1.20
2023-01-22T21:50:25.230Z,1.20
2023-01-22T21:52:27.076Z,1.20
2023-01-22T21:54:33.942Z,1.20
2023-01-22T21:56:35.773Z,1.20
2023-01-22T21:58:45.084Z,1.20
2023-01-22T22:00:47.101Z,1.10
2023-01-22T22:02:48.981Z,1.10
2023-01-22T22:04:50.781Z,1.10
2023-01-22T22:06:53.634Z,1.10
2023-01-22T22:08:55.891Z,1.10
2023-01-22T22:10:58.216Z,1.10
2023-01-22T22:13:00.091Z,1.10
2023-01-22T22:15:01.860Z,1.10
2023-01-22T22:17:06.793Z,1.10
2023-01-22T22:19:08.816Z,1.10
2023-01-22T22:21:11.637Z,1.00
2023-01-22T22:23:13.393Z,1.00
2023-01-22T22:25:15.189Z,1.00
2023-01-22T22:27:17.371Z,1.10
2023-01-22T22:29:19.087Z,1.10
2023-01-22T22:31:24.066Z,1.10
2023-01-22T22:33:25.898Z,1.00
2023-01-22T22:35:27.686Z,1.00
2023-01-22T22:37:29.441Z,1.00
2023-01-22T22:39:31.590Z,1.10
2023-01-22T22:41:36.011Z,1.00
2023-01-22T22:43:46.756Z,1.10
2023-01-22T22:45:48.541Z,1.00
2023-01-22T22:47:52.823Z,1.10
2023-01-22T22:49:54.622Z,1.00
2023-01-22T22:51:56.455Z,1.10
2023-01-22T22:54:01.135Z,1.10
2023-01-22T22:56:04.923Z,1.10
2023-01-22T22:58:09.322Z,1.10
2023-01-22T23:00:13.247Z,1.10
2023-01-22T23:02:14.958Z,1.00
2023-01-22T23:04:17.095Z,1.00
2023-01-22T23:06:30.502Z,1.00
2023-01-22T23:08:32.227Z,1.00
2023-01-22T23:10:34.063Z,1.00
2023-01-22T23:12:35.901Z,1.00
2023-01-22T23:14:37.653Z,1.00
2023-01-22T23:16:41.926Z,1.00
2023-01-22T23:18:44.261Z,0.90
2023-01-22T23:20:45.973Z,0.90
2023-01-22T23:22:49.607Z,1.00
2023-01-22T23:24:51.462Z,1.00
2023-01-22T23:26:53.621Z,1.00
2023-01-22T23:28:58.095Z,1.00
2023-01-22T23:31:05.448Z,1.10
2023-01-22T23:33:07.193Z,1.10
2023-01-22T23:35:09.292Z,1.10
2023-01-22T23:37:11.006Z,1.00
2023-01-22T23:39:14.922Z,1.00
2023-01-22T23:41:18.333Z,1.10
2023-01-22T23:43:20.119Z,1.00
2023-01-22T23:45:21.944Z,1.00
2023-01-22T23:47:27.010Z,1.00
2023-01-22T23:49:28.823Z,0.90
2023-01-22T23:51:31.163Z,0.90
2023-01-22T23:53:36.813Z,0.90
2023-01-22T23:55:38.628Z,0.90
2023-01-22T23:57:40.531Z,0.90
2023-01-22T23:59:42.291Z,0.90
